sensor_id;sensor_type;location;lat;lon;timestamp;temperature;humidity
37050;DHT22;22958;51.232;6.826;2022-09-09T00:09:17;16.40;99.90
37050;DHT22;22958;51.232;6.826;2022-09-09T00:11:47;16.40;99.90
37050;DHT22;22958;51.232;6.826;2022-09-09T00:14:15;16.30;99.90
37050;DHT22;22958;51.232;6.826;2022-09-09T00:16:43;16.30;99.90
37050;DHT22;22958;51.232;6.826;2022-09-09T00:19:20;16.30;99.90
37050;DHT22;22958;51.232;6.826;2022-09-09T00:22:12;16.20;99.90
37050;DHT22;22958;51.232;6.826;2022-09-09T00:24:50;16.20;99.90
37050;DHT22;22958;51.232;6.826;2022-09-09T00:27:23;16.10;99.90
37050;DHT22;22958;51.232;6.826;2022-09-09T00:29:58;16.10;99.90
37050;DHT22;22958;51.232;6.826;2022-09-09T00:32:28;16.10;99.90
37050;DHT22;22958;51.232;6.826;2022-09-09T00:35:00;16.10;99.90
37050;DHT22;22958;51.232;6.826;2022-09-09T00:37:26;16.10;99.90
37050;DHT22;22958;51.232;6.826;2022-09-09T00:39:54;16.00;99.90
37050;DHT22;22958;51.232;6.826;2022-09-09T00:42:25;16.10;99.90
37050;DHT22;22958;51.232;6.826;2022-09-09T00:47:46;16.00;99.90
37050;DHT22;22958;51.232;6.826;2022-09-09T00:57:48;16.00;99.90
37050;DHT22;22958;51.232;6.826;2022-09-09T01:08:32;16.10;99.90
37050;DHT22;22958;51.232;6.826;2022-09-09T01:10:53;16.00;99.90
37050;DHT22;22958;51.232;6.826;2022-09-09T01:13:24;16.00;99.90
37050;DHT22;22958;51.232;6.826;2022-09-09T01:15:50;15.90;99.90
37050;DHT22;22958;51.232;6.826;2022-09-09T01:18:16;15.90;99.90
37050;DHT22;22958;51.232;6.826;2022-09-09T01:21:01;15.90;99.90
37050;DHT22;22958;51.232;6.826;2022-09-09T01:26:07;15.80;99.90
37050;DHT22;22958;51.232;6.826;2022-09-09T01:28:33;15.90;99.90
37050;DHT22;22958;51.232;6.826;2022-09-09T01:31:00;15.90;99.90
37050;DHT22;22958;51.232;6.826;2022-09-09T01:33:27;15.80;99.90
37050;DHT22;22958;51.232;6.826;2022-09-09T01:35:57;15.80;99.90
37050;DHT22;22958;51.232;6.826;2022-09-09T01:38:26;15.80;99.90
37050;DHT22;22958;51.232;6.826;2022-09-09T01:40:53;15.70;99.90
37050;DHT22;22958;51.232;6.826;2022-09-09T01:43:21;15.70;99.90
37050;DHT22;22958;51.232;6.826;2022-09-09T01:45:48;15.70;99.90
37050;DHT22;22958;51.232;6.826;2022-09-09T01:48:14;15.70;99.90
37050;DHT22;22958;51.232;6.826;2022-09-09T01:50:40;15.70;99.90
37050;DHT22;22958;51.232;6.826;2022-09-09T01:53:06;15.70;99.90
37050;DHT22;22958;51.232;6.826;2022-09-09T01:55:32;15.80;99.90
37050;DHT22;22958;51.232;6.826;2022-09-09T01:58:14;16.00;99.90
37050;DHT22;22958;51.232;6.826;2022-09-09T02:00:43;16.10;99.90
37050;DHT22;22958;51.232;6.826;2022-09-09T02:08:38;16.20;99.90
37050;DHT22;22958;51.232;6.826;2022-09-09T02:13:33;16.30;99.90
37050;DHT22;22958;51.232;6.826;2022-09-09T02:16:00;16.30;99.90
37050;DHT22;22958;51.232;6.826;2022-09-09T02:18:35;16.40;99.90
37050;DHT22;22958;51.232;6.826;2022-09-09T02:21:01;16.40;99.90
37050;DHT22;22958;51.232;6.826;2022-09-09T02:23:27;16.30;99.90
37050;DHT22;22958;51.232;6.826;2022-09-09T02:25:53;16.30;99.90
37050;DHT22;22958;51.232;6.826;2022-09-09T02:28:20;16.30;99.90
37050;DHT22;22958;51.232;6.826;2022-09-09T02:30:47;16.40;99.90
37050;DHT22;22958;51.232;6.826;2022-09-09T02:33:15;16.40;99.90
37050;DHT22;22958;51.232;6.826;2022-09-09T02:35:41;16.40;99.90
37050;DHT22;22958;51.232;6.826;2022-09-09T02:38:09;16.40;99.90
37050;DHT22;22958;51.232;6.826;2022-09-09T02:40:35;16.40;99.90
37050;DHT22;22958;51.232;6.826;2022-09-09T02:43:01;16.40;99.90
37050;DHT22;22958;51.232;6.826;2022-09-09T02:45:36;16.50;99.90
37050;DHT22;22958;51.232;6.826;2022-09-09T02:50:46;16.50;99.90
37050;DHT22;22958;51.232;6.826;2022-09-09T02:53:19;16.60;99.90
37050;DHT22;22958;51.232;6.826;2022-09-09T02:55:57;16.80;99.90
37050;DHT22;22958;51.232;6.826;2022-09-09T02:58:23;16.80;99.90
37050;DHT22;22958;51.232;6.826;2022-09-09T03:00:50;16.90;99.90
37050;DHT22;22958;51.232;6.826;2022-09-09T03:03:16;16.90;99.90
37050;DHT22;22958;51.232;6.826;2022-09-09T03:05:42;16.90;99.90
37050;DHT22;22958;51.232;6.826;2022-09-09T03:08:07;16.80;99.90
37050;DHT22;22958;51.232;6.826;2022-09-09T03:10:33;16.90;99.90
37050;DHT22;22958;51.232;6.826;2022-09-09T03:12:58;16.90;99.90
37050;DHT22;22958;51.232;6.826;2022-09-09T03:15:24;16.90;99.90
37050;DHT22;22958;51.232;6.826;2022-09-09T03:17:54;16.90;99.90
37050;DHT22;22958;51.232;6.826;2022-09-09T03:20:20;16.90;99.90
37050;DHT22;22958;51.232;6.826;2022-09-09T03:22:45;16.90;99.90
37050;DHT22;22958;51.232;6.826;2022-09-09T03:25:11;16.90;99.90
37050;DHT22;22958;51.232;6.826;2022-09-09T03:27:36;16.90;99.90
37050;DHT22;22958;51.232;6.826;2022-09-09T03:30:02;16.90;99.90
37050;DHT22;22958;51.232;6.826;2022-09-09T03:32:28;16.90;99.90
37050;DHT22;22958;51.232;6.826;2022-09-09T03:34:54;16.90;99.90
37050;DHT22;22958;51.232;6.826;2022-09-09T03:37:19;16.90;99.90
37050;DHT22;22958;51.232;6.826;2022-09-09T03:39:45;16.90;99.90
37050;DHT22;22958;51.232;6.826;2022-09-09T03:42:13;16.90;99.90
37050;DHT22;22958;51.232;6.826;2022-09-09T03:44:39;17.00;99.90
37050;DHT22;22958;51.232;6.826;2022-09-09T03:47:05;16.90;99.90
37050;DHT22;22958;51.232;6.826;2022-09-09T03:49:31;16.90;99.90
37050;DHT22;22958;51.232;6.826;2022-09-09T03:51:57;16.90;99.90
37050;DHT22;22958;51.232;6.826;2022-09-09T03:54:24;17.00;99.90
37050;DHT22;22958;51.232;6.826;2022-09-09T03:56:50;17.00;99.90
37050;DHT22;22958;51.232;6.826;2022-09-09T03:59:15;16.90;99.90
37050;DHT22;22958;51.232;6.826;2022-09-09T04:01:41;16.90;99.90
37050;DHT22;22958;51.232;6.826;2022-09-09T04:04:06;17.00;99.90
37050;DHT22;22958;51.232;6.826;2022-09-09T04:06:32;16.90;99.90
37050;DHT22;22958;51.232;6.826;2022-09-09T04:08:58;16.90;99.90
37050;DHT22;22958;51.232;6.826;2022-09-09T04:11:23;16.80;99.90
37050;DHT22;22958;51.232;6.826;2022-09-09T04:13:49;16.80;99.90
37050;DHT22;22958;51.232;6.826;2022-09-09T04:16:15;16.70;99.90
37050;DHT22;22958;51.232;6.826;2022-09-09T04:18:40;16.80;99.90
37050;DHT22;22958;51.232;6.826;2022-09-09T04:21:06;16.80;99.90
37050;DHT22;22958;51.232;6.826;2022-09-09T04:23:33;16.80;99.90
37050;DHT22;22958;51.232;6.826;2022-09-09T04:26:00;16.70;99.90
37050;DHT22;22958;51.232;6.826;2022-09-09T04:28:26;16.70;99.90
37050;DHT22;22958;51.232;6.826;2022-09-09T04:30:52;16.80;99.90
37050;DHT22;22958;51.232;6.826;2022-09-09T04:33:17;16.80;99.90
37050;DHT22;22958;51.232;6.826;2022-09-09T04:35:47;16.80;99.90
37050;DHT22;22958;51.232;6.826;2022-09-09T04:38:13;16.90;99.90
37050;DHT22;22958;51.232;6.826;2022-09-09T04:40:38;16.90;99.90
37050;DHT22;22958;51.232;6.826;2022-09-09T04:43:08;16.90;99.90
37050;DHT22;22958;51.232;6.826;2022-09-09T04:45:34;17.00;99.90
37050;DHT22;22958;51.232;6.826;2022-09-09T04:47:59;17.00;99.90
37050;DHT22;22958;51.232;6.826;2022-09-09T04:50:29;17.00;99.90
37050;DHT22;22958;51.232;6.826;2022-09-09T04:52:55;17.10;99.90
37050;DHT22;22958;51.232;6.826;2022-09-09T04:55:20;17.10;99.90
37050;DHT22;22958;51.232;6.826;2022-09-09T04:57:46;17.10;99.90
37050;DHT22;22958;51.232;6.826;2022-09-09T05:00:11;17.10;99.90
37050;DHT22;22958;51.232;6.826;2022-09-09T05:02:39;17.20;99.90
37050;DHT22;22958;51.232;6.826;2022-09-09T05:05:04;17.20;99.90
37050;DHT22;22958;51.232;6.826;2022-09-09T05:07:30;17.20;99.90
37050;DHT22;22958;51.232;6.826;2022-09-09T05:09:56;17.20;99.90
37050;DHT22;22958;51.232;6.826;2022-09-09T05:12:22;17.20;99.90
37050;DHT22;22958;51.232;6.826;2022-09-09T05:14:48;17.20;99.90
37050;DHT22;22958;51.232;6.826;2022-09-09T05:17:14;17.20;99.90
37050;DHT22;22958;51.232;6.826;2022-09-09T05:19:40;17.30;99.90
37050;DHT22;22958;51.232;6.826;2022-09-09T05:22:05;17.30;99.90
37050;DHT22;22958;51.232;6.826;2022-09-09T05:24:31;17.30;99.90
37050;DHT22;22958;51.232;6.826;2022-09-09T05:26:58;17.30;99.90
37050;DHT22;22958;51.232;6.826;2022-09-09T05:29:25;17.30;99.90
37050;DHT22;22958;51.232;6.826;2022-09-09T05:31:51;17.40;99.90
37050;DHT22;22958;51.232;6.826;2022-09-09T05:34:17;17.40;99.90
37050;DHT22;22958;51.232;6.826;2022-09-09T05:36:42;17.40;99.90
37050;DHT22;22958;51.232;6.826;2022-09-09T05:39:08;17.50;99.90
37050;DHT22;22958;51.232;6.826;2022-09-09T05:41:33;17.50;99.90
37050;DHT22;22958;51.232;6.826;2022-09-09T05:43:59;17.40;99.90
37050;DHT22;22958;51.232;6.826;2022-09-09T05:46:26;17.40;99.90
37050;DHT22;22958;51.232;6.826;2022-09-09T05:48:51;17.40;99.90
37050;DHT22;22958;51.232;6.826;2022-09-09T05:51:19;17.40;99.90
37050;DHT22;22958;51.232;6.826;2022-09-09T05:53:46;17.40;99.90
37050;DHT22;22958;51.232;6.826;2022-09-09T05:56:13;17.50;99.90
37050;DHT22;22958;51.232;6.826;2022-09-09T05:58:42;17.50;99.90
37050;DHT22;22958;51.232;6.826;2022-09-09T06:01:10;17.60;99.90
37050;DHT22;22958;51.232;6.826;2022-09-09T06:03:36;17.60;99.90
37050;DHT22;22958;51.232;6.826;2022-09-09T06:06:05;17.60;99.90
37050;DHT22;22958;51.232;6.826;2022-09-09T06:08:32;17.70;99.90
37050;DHT22;22958;51.232;6.826;2022-09-09T06:11:02;17.70;99.90
37050;DHT22;22958;51.232;6.826;2022-09-09T06:13:28;17.80;99.90
37050;DHT22;22958;51.232;6.826;2022-09-09T06:15:54;17.80;99.90
37050;DHT22;22958;51.232;6.826;2022-09-09T06:18:19;17.80;99.90
37050;DHT22;22958;51.232;6.826;2022-09-09T06:20:58;17.90;99.90
37050;DHT22;22958;51.232;6.826;2022-09-09T06:23:24;17.80;99.90
37050;DHT22;22958;51.232;6.826;2022-09-09T06:25:50;17.90;99.90
37050;DHT22;22958;51.232;6.826;2022-09-09T06:28:16;17.90;99.90
37050;DHT22;22958;51.232;6.826;2022-09-09T06:30:42;17.90;99.90
37050;DHT22;22958;51.232;6.826;2022-09-09T06:33:07;17.90;99.90
37050;DHT22;22958;51.232;6.826;2022-09-09T06:35:34;17.90;99.90
37050;DHT22;22958;51.232;6.826;2022-09-09T06:38:00;17.90;99.90
37050;DHT22;22958;51.232;6.826;2022-09-09T06:40:25;17.90;99.90
37050;DHT22;22958;51.232;6.826;2022-09-09T06:42:50;17.90;99.90
37050;DHT22;22958;51.232;6.826;2022-09-09T06:45:16;17.90;99.90
37050;DHT22;22958;51.232;6.826;2022-09-09T06:47:42;17.80;99.90
37050;DHT22;22958;51.232;6.826;2022-09-09T06:50:08;17.90;99.90
37050;DHT22;22958;51.232;6.826;2022-09-09T06:52:33;17.80;99.90
37050;DHT22;22958;51.232;6.826;2022-09-09T06:54:59;17.80;99.90
37050;DHT22;22958;51.232;6.826;2022-09-09T06:57:24;17.80;99.90
37050;DHT22;22958;51.232;6.826;2022-09-09T06:59:49;17.90;99.90
37050;DHT22;22958;51.232;6.826;2022-09-09T07:02:15;17.90;99.90
37050;DHT22;22958;51.232;6.826;2022-09-09T07:04:41;17.90;99.90
37050;DHT22;22958;51.232;6.826;2022-09-09T07:07:06;18.00;99.90
37050;DHT22;22958;51.232;6.826;2022-09-09T07:09:33;18.10;99.90
37050;DHT22;22958;51.232;6.826;2022-09-09T07:11:58;18.10;99.90
37050;DHT22;22958;51.232;6.826;2022-09-09T07:14:24;18.20;99.90
37050;DHT22;22958;51.232;6.826;2022-09-09T07:16:50;18.20;99.90
37050;DHT22;22958;51.232;6.826;2022-09-09T07:19:17;18.30;99.90
37050;DHT22;22958;51.232;6.826;2022-09-09T07:21:42;18.50;99.90
37050;DHT22;22958;51.232;6.826;2022-09-09T07:24:08;18.50;99.90
37050;DHT22;22958;51.232;6.826;2022-09-09T07:26:35;18.40;99.90
37050;DHT22;22958;51.232;6.826;2022-09-09T07:29:01;18.30;99.90
37050;DHT22;22958;51.232;6.826;2022-09-09T07:31:28;18.30;99.90
37050;DHT22;22958;51.232;6.826;2022-09-09T07:33:55;18.30;99.90
37050;DHT22;22958;51.232;6.826;2022-09-09T07:36:22;18.30;99.90
37050;DHT22;22958;51.232;6.826;2022-09-09T07:38:49;18.30;99.90
37050;DHT22;22958;51.232;6.826;2022-09-09T07:41:20;18.30;99.90
37050;DHT22;22958;51.232;6.826;2022-09-09T07:43:46;18.30;99.90
37050;DHT22;22958;51.232;6.826;2022-09-09T07:46:13;18.50;99.90
37050;DHT22;22958;51.232;6.826;2022-09-09T07:48:43;18.60;99.90
37050;DHT22;22958;51.232;6.826;2022-09-09T07:51:10;18.80;99.90
37050;DHT22;22958;51.232;6.826;2022-09-09T07:53:37;18.80;99.90
37050;DHT22;22958;51.232;6.826;2022-09-09T07:56:07;18.90;99.90
37050;DHT22;22958;51.232;6.826;2022-09-09T07:58:35;18.90;99.90
37050;DHT22;22958;51.232;6.826;2022-09-09T08:01:05;18.90;99.90
37050;DHT22;22958;51.232;6.826;2022-09-09T08:03:30;18.90;99.90
37050;DHT22;22958;51.232;6.826;2022-09-09T08:05:59;18.90;99.90
37050;DHT22;22958;51.232;6.826;2022-09-09T08:08:26;18.80;99.90
37050;DHT22;22958;51.232;6.826;2022-09-09T08:10:52;18.70;99.90
37050;DHT22;22958;51.232;6.826;2022-09-09T08:13:18;18.70;99.90
37050;DHT22;22958;51.232;6.826;2022-09-09T08:15:43;18.70;99.90
37050;DHT22;22958;51.232;6.826;2022-09-09T08:18:09;18.80;99.90
37050;DHT22;22958;51.232;6.826;2022-09-09T08:20:35;18.80;99.90
37050;DHT22;22958;51.232;6.826;2022-09-09T08:23:01;19.00;99.90
37050;DHT22;22958;51.232;6.826;2022-09-09T08:25:26;19.10;99.90
37050;DHT22;22958;51.232;6.826;2022-09-09T08:27:52;19.10;99.90
37050;DHT22;22958;51.232;6.826;2022-09-09T08:30:18;19.10;99.90
37050;DHT22;22958;51.232;6.826;2022-09-09T08:32:43;19.30;99.90
37050;DHT22;22958;51.232;6.826;2022-09-09T08:35:09;19.50;99.90
37050;DHT22;22958;51.232;6.826;2022-09-09T08:37:35;19.60;99.90
37050;DHT22;22958;51.232;6.826;2022-09-09T08:40:00;19.60;99.90
37050;DHT22;22958;51.232;6.826;2022-09-09T08:42:29;19.60;99.90
37050;DHT22;22958;51.232;6.826;2022-09-09T08:48:26;19.70;99.90
37050;DHT22;22958;51.232;6.826;2022-09-09T08:50:36;19.70;99.90
37050;DHT22;22958;51.232;6.826;2022-09-09T08:53:17;19.60;99.90
37050;DHT22;22958;51.232;6.826;2022-09-09T08:55:54;19.60;99.90
37050;DHT22;22958;51.232;6.826;2022-09-09T08:58:26;19.60;99.90
37050;DHT22;22958;51.232;6.826;2022-09-09T09:08:36;19.60;99.90
37050;DHT22;22958;51.232;6.826;2022-09-09T09:11:04;19.70;99.90
37050;DHT22;22958;51.232;6.826;2022-09-09T09:16:27;19.70;99.90
37050;DHT22;22958;51.232;6.826;2022-09-09T09:18:56;19.60;99.90
37050;DHT22;22958;51.232;6.826;2022-09-09T09:23:58;19.50;99.90
37050;DHT22;22958;51.232;6.826;2022-09-09T09:26:24;19.50;99.90
37050;DHT22;22958;51.232;6.826;2022-09-09T09:28:52;19.50;99.90
37050;DHT22;22958;51.232;6.826;2022-09-09T09:31:21;19.50;99.90
37050;DHT22;22958;51.232;6.826;2022-09-09T09:33:54;19.50;99.90
37050;DHT22;22958;51.232;6.826;2022-09-09T09:36:21;19.60;99.90
37050;DHT22;22958;51.232;6.826;2022-09-09T09:38:59;19.60;99.90
37050;DHT22;22958;51.232;6.826;2022-09-09T09:41:28;19.80;99.90
37050;DHT22;22958;51.232;6.826;2022-09-09T09:43:54;19.90;99.90
37050;DHT22;22958;51.232;6.826;2022-09-09T09:46:20;20.00;99.90
37050;DHT22;22958;51.232;6.826;2022-09-09T09:48:58;20.00;99.90
37050;DHT22;22958;51.232;6.826;2022-09-09T09:51:24;20.10;99.90
37050;DHT22;22958;51.232;6.826;2022-09-09T09:53:50;20.30;99.90
37050;DHT22;22958;51.232;6.826;2022-09-09T09:56:18;20.60;99.90
37050;DHT22;22958;51.232;6.826;2022-09-09T09:58:51;20.70;99.90
37050;DHT22;22958;51.232;6.826;2022-09-09T10:01:21;20.80;99.90
37050;DHT22;22958;51.232;6.826;2022-09-09T10:03:50;20.80;99.90
37050;DHT22;22958;51.232;6.826;2022-09-09T10:06:16;20.60;99.90
37050;DHT22;22958;51.232;6.826;2022-09-09T10:08:45;20.60;99.90
37050;DHT22;22958;51.232;6.826;2022-09-09T10:16:19;20.60;99.90
37050;DHT22;22958;51.232;6.826;2022-09-09T10:19:00;20.90;99.90
37050;DHT22;22958;51.232;6.826;2022-09-09T10:31:43;21.20;99.90
37050;DHT22;22958;51.232;6.826;2022-09-09T10:36:46;20.90;99.90
37050;DHT22;22958;51.232;6.826;2022-09-09T10:39:22;20.60;99.90
37050;DHT22;22958;51.232;6.826;2022-09-09T10:42:06;20.70;99.90
37050;DHT22;22958;51.232;6.826;2022-09-09T10:47:32;20.70;99.90
37050;DHT22;22958;51.232;6.826;2022-09-09T10:50:05;20.70;99.90
37050;DHT22;22958;51.232;6.826;2022-09-09T10:52:39;20.60;99.90
37050;DHT22;22958;51.232;6.826;2022-09-09T10:57:36;20.70;99.90
37050;DHT22;22958;51.232;6.826;2022-09-09T11:00:04;20.60;99.90
37050;DHT22;22958;51.232;6.826;2022-09-09T11:02:32;20.70;99.90
37050;DHT22;22958;51.232;6.826;2022-09-09T11:05:05;20.80;99.90
37050;DHT22;22958;51.232;6.826;2022-09-09T11:09:59;20.80;99.90
37050;DHT22;22958;51.232;6.826;2022-09-09T11:12:26;20.80;99.90
37050;DHT22;22958;51.232;6.826;2022-09-09T11:14:57;20.70;99.90
37050;DHT22;22958;51.232;6.826;2022-09-09T11:17:26;20.40;99.90
37050;DHT22;22958;51.232;6.826;2022-09-09T11:19:55;20.30;99.90
37050;DHT22;22958;51.232;6.826;2022-09-09T11:22:31;20.30;99.90
37050;DHT22;22958;51.232;6.826;2022-09-09T11:24:59;20.30;99.90
37050;DHT22;22958;51.232;6.826;2022-09-09T11:27:26;20.40;99.90
37050;DHT22;22958;51.232;6.826;2022-09-09T11:30:01;20.30;99.90
37050;DHT22;22958;51.232;6.826;2022-09-09T11:34:59;19.20;99.90
37050;DHT22;22958;51.232;6.826;2022-09-09T11:40:24;19.30;99.90
37050;DHT22;22958;51.232;6.826;2022-09-09T11:43:04;19.80;99.90
37050;DHT22;22958;51.232;6.826;2022-09-09T11:45:31;20.10;99.90
37050;DHT22;22958;51.232;6.826;2022-09-09T11:47:59;20.40;99.90
37050;DHT22;22958;51.232;6.826;2022-09-09T11:52:51;20.60;99.90
37050;DHT22;22958;51.232;6.826;2022-09-09T11:55:28;20.50;99.90
37050;DHT22;22958;51.232;6.826;2022-09-09T11:57:59;20.20;99.90
37050;DHT22;22958;51.232;6.826;2022-09-09T12:00:44;20.10;99.90
37050;DHT22;22958;51.232;6.826;2022-09-09T12:03:32;20.20;99.90
37050;DHT22;22958;51.232;6.826;2022-09-09T12:05:59;20.10;99.90
37050;DHT22;22958;51.232;6.826;2022-09-09T12:08:26;20.10;99.90
37050;DHT22;22958;51.232;6.826;2022-09-09T12:10:54;20.10;99.90
37050;DHT22;22958;51.232;6.826;2022-09-09T12:13:22;20.20;99.90
37050;DHT22;22958;51.232;6.826;2022-09-09T12:15:52;20.50;99.90
37050;DHT22;22958;51.232;6.826;2022-09-09T12:18:26;20.60;99.90
37050;DHT22;22958;51.232;6.826;2022-09-09T12:20:57;20.80;99.90
37050;DHT22;22958;51.232;6.826;2022-09-09T12:31:06;23.70;99.90
37050;DHT22;22958;51.232;6.826;2022-09-09T12:33:34;24.20;99.90
37050;DHT22;22958;51.232;6.826;2022-09-09T12:35:59;23.60;99.90
37050;DHT22;22958;51.232;6.826;2022-09-09T12:38:31;22.30;99.90
37050;DHT22;22958;51.232;6.826;2022-09-09T12:40:58;21.50;99.90
37050;DHT22;22958;51.232;6.826;2022-09-09T12:43:24;21.20;99.90
37050;DHT22;22958;51.232;6.826;2022-09-09T12:45:58;21.40;99.90
37050;DHT22;22958;51.232;6.826;2022-09-09T12:48:28;21.60;99.90
37050;DHT22;22958;51.232;6.826;2022-09-09T12:50:55;21.70;99.90
37050;DHT22;22958;51.232;6.826;2022-09-09T12:53:22;21.40;99.90
37050;DHT22;22958;51.232;6.826;2022-09-09T12:55:50;21.10;99.90
37050;DHT22;22958;51.232;6.826;2022-09-09T12:58:16;20.80;99.90
37050;DHT22;22958;51.232;6.826;2022-09-09T13:00:48;20.70;99.90
37050;DHT22;22958;51.232;6.826;2022-09-09T13:03:19;20.80;99.90
37050;DHT22;22958;51.232;6.826;2022-09-09T13:05:46;20.70;99.90
37050;DHT22;22958;51.232;6.826;2022-09-09T13:08:12;20.70;99.90
37050;DHT22;22958;51.232;6.826;2022-09-09T13:10:40;20.70;99.90
37050;DHT22;22958;51.232;6.826;2022-09-09T13:13:15;20.50;99.90
37050;DHT22;22958;51.232;6.826;2022-09-09T13:15:48;20.50;99.90
37050;DHT22;22958;51.232;6.826;2022-09-09T13:18:21;20.90;99.90
37050;DHT22;22958;51.232;6.826;2022-09-09T13:20:47;20.80;99.90
37050;DHT22;22958;51.232;6.826;2022-09-09T13:23:13;20.70;99.90
37050;DHT22;22958;51.232;6.826;2022-09-09T13:25:39;20.50;99.90
37050;DHT22;22958;51.232;6.826;2022-09-09T13:28:05;20.40;99.90
37050;DHT22;22958;51.232;6.826;2022-09-09T13:30:31;20.40;99.90
37050;DHT22;22958;51.232;6.826;2022-09-09T13:35:27;20.20;99.90
37050;DHT22;22958;51.232;6.826;2022-09-09T13:37:53;20.30;99.90
37050;DHT22;22958;51.232;6.826;2022-09-09T13:40:22;20.30;99.90
37050;DHT22;22958;51.232;6.826;2022-09-09T13:42:51;20.50;99.90
37050;DHT22;22958;51.232;6.826;2022-09-09T13:45:18;20.70;99.90
37050;DHT22;22958;51.232;6.826;2022-09-09T13:47:45;20.90;99.90
37050;DHT22;22958;51.232;6.826;2022-09-09T13:50:45;21.20;99.90
37050;DHT22;22958;51.232;6.826;2022-09-09T13:53:03;21.10;99.90
37050;DHT22;22958;51.232;6.826;2022-09-09T13:55:29;21.10;99.90
37050;DHT22;22958;51.232;6.826;2022-09-09T13:57:56;20.80;99.90
37050;DHT22;22958;51.232;6.826;2022-09-09T14:00:22;20.70;99.90
37050;DHT22;22958;51.232;6.826;2022-09-09T14:02:48;20.60;99.90
37050;DHT22;22958;51.232;6.826;2022-09-09T14:05:14;20.60;99.90
37050;DHT22;22958;51.232;6.826;2022-09-09T14:07:41;20.60;99.90
37050;DHT22;22958;51.232;6.826;2022-09-09T14:10:07;21.20;99.90
37050;DHT22;22958;51.232;6.826;2022-09-09T14:12:33;22.50;99.90
37050;DHT22;22958;51.232;6.826;2022-09-09T14:14:58;22.20;99.90
37050;DHT22;22958;51.232;6.826;2022-09-09T14:17:25;21.80;99.90
37050;DHT22;22958;51.232;6.826;2022-09-09T14:19:52;21.70;99.90
37050;DHT22;22958;51.232;6.826;2022-09-09T14:22:18;22.20;99.90
37050;DHT22;22958;51.232;6.826;2022-09-09T14:24:43;22.70;99.90
37050;DHT22;22958;51.232;6.826;2022-09-09T14:27:09;22.90;99.90
37050;DHT22;22958;51.232;6.826;2022-09-09T14:29:34;22.50;99.90
37050;DHT22;22958;51.232;6.826;2022-09-09T14:32:00;22.00;99.90
37050;DHT22;22958;51.232;6.826;2022-09-09T14:34:26;21.60;99.90
37050;DHT22;22958;51.232;6.826;2022-09-09T14:36:51;21.20;99.90
37050;DHT22;22958;51.232;6.826;2022-09-09T14:39:17;20.80;99.90
37050;DHT22;22958;51.232;6.826;2022-09-09T14:41:42;20.40;99.90
37050;DHT22;22958;51.232;6.826;2022-09-09T14:44:08;20.00;99.90
37050;DHT22;22958;51.232;6.826;2022-09-09T14:46:33;19.60;99.90
37050;DHT22;22958;51.232;6.826;2022-09-09T14:48:59;19.30;99.90
37050;DHT22;22958;51.232;6.826;2022-09-09T14:51:25;19.00;99.90
37050;DHT22;22958;51.232;6.826;2022-09-09T14:53:51;18.30;99.90
37050;DHT22;22958;51.232;6.826;2022-09-09T14:56:18;17.50;99.90
37050;DHT22;22958;51.232;6.826;2022-09-09T14:58:45;16.90;99.90
37050;DHT22;22958;51.232;6.826;2022-09-09T15:01:12;16.60;99.90
37050;DHT22;22958;51.232;6.826;2022-09-09T15:03:38;16.40;99.90
37050;DHT22;22958;51.232;6.826;2022-09-09T15:06:05;16.10;99.90
37050;DHT22;22958;51.232;6.826;2022-09-09T15:08:31;15.90;99.90
37050;DHT22;22958;51.232;6.826;2022-09-09T15:11:00;15.80;99.90
37050;DHT22;22958;51.232;6.826;2022-09-09T15:13:26;15.70;99.90
37050;DHT22;22958;51.232;6.826;2022-09-09T15:15:51;15.80;99.90
37050;DHT22;22958;51.232;6.826;2022-09-09T15:18:17;15.90;99.90
37050;DHT22;22958;51.232;6.826;2022-09-09T15:20:45;16.10;99.90
37050;DHT22;22958;51.232;6.826;2022-09-09T15:23:12;16.20;99.90
37050;DHT22;22958;51.232;6.826;2022-09-09T15:25:37;16.40;99.90
37050;DHT22;22958;51.232;6.826;2022-09-09T15:28:02;16.60;99.90
37050;DHT22;22958;51.232;6.826;2022-09-09T15:30:28;16.80;99.90
37050;DHT22;22958;51.232;6.826;2022-09-09T15:32:53;16.90;99.90
37050;DHT22;22958;51.232;6.826;2022-09-09T15:35:20;16.90;99.90
37050;DHT22;22958;51.232;6.826;2022-09-09T15:37:45;17.00;99.90
37050;DHT22;22958;51.232;6.826;2022-09-09T15:40:11;17.10;99.90
37050;DHT22;22958;51.232;6.826;2022-09-09T15:42:36;17.10;99.90
37050;DHT22;22958;51.232;6.826;2022-09-09T15:45:02;17.10;99.90
37050;DHT22;22958;51.232;6.826;2022-09-09T15:47:30;17.20;99.90
37050;DHT22;22958;51.232;6.826;2022-09-09T15:49:55;17.10;99.90
37050;DHT22;22958;51.232;6.826;2022-09-09T15:52:21;17.10;99.90
37050;DHT22;22958;51.232;6.826;2022-09-09T15:54:46;17.10;99.90
37050;DHT22;22958;51.232;6.826;2022-09-09T15:57:14;17.00;99.90
37050;DHT22;22958;51.232;6.826;2022-09-09T15:59:39;16.90;99.90
37050;DHT22;22958;51.232;6.826;2022-09-09T16:02:05;16.80;99.90
37050;DHT22;22958;51.232;6.826;2022-09-09T16:04:31;16.70;99.90
37050;DHT22;22958;51.232;6.826;2022-09-09T16:07:06;16.60;99.90
37050;DHT22;22958;51.232;6.826;2022-09-09T16:09:31;16.50;99.90
37050;DHT22;22958;51.232;6.826;2022-09-09T16:11:58;16.40;99.90
37050;DHT22;22958;51.232;6.826;2022-09-09T16:14:24;16.30;99.90
37050;DHT22;22958;51.232;6.826;2022-09-09T16:16:50;16.40;99.90
37050;DHT22;22958;51.232;6.826;2022-09-09T16:19:16;16.40;99.90
37050;DHT22;22958;51.232;6.826;2022-09-09T16:21:43;16.40;99.90
37050;DHT22;22958;51.232;6.826;2022-09-09T16:24:11;16.40;99.90
37050;DHT22;22958;51.232;6.826;2022-09-09T16:26:37;16.30;99.90
37050;DHT22;22958;51.232;6.826;2022-09-09T16:29:03;16.30;99.90
37050;DHT22;22958;51.232;6.826;2022-09-09T16:31:29;16.30;99.90
37050;DHT22;22958;51.232;6.826;2022-09-09T16:33:57;16.30;99.90
37050;DHT22;22958;51.232;6.826;2022-09-09T16:36:24;16.20;99.90
37050;DHT22;22958;51.232;6.826;2022-09-09T16:38:53;16.20;99.90
37050;DHT22;22958;51.232;6.826;2022-09-09T16:41:20;16.10;99.90
37050;DHT22;22958;51.232;6.826;2022-09-09T16:43:45;16.00;99.90
37050;DHT22;22958;51.232;6.826;2022-09-09T16:46:12;16.00;99.90
37050;DHT22;22958;51.232;6.826;2022-09-09T16:48:38;16.00;99.90
37050;DHT22;22958;51.232;6.826;2022-09-09T16:51:08;16.00;99.90
37050;DHT22;22958;51.232;6.826;2022-09-09T16:53:35;16.00;99.90
37050;DHT22;22958;51.232;6.826;2022-09-09T16:56:05;16.00;99.90
37050;DHT22;22958;51.232;6.826;2022-09-09T16:58:31;16.00;99.90
37050;DHT22;22958;51.232;6.826;2022-09-09T17:01:00;16.10;99.90
37050;DHT22;22958;51.232;6.826;2022-09-09T17:03:27;16.10;99.90
37050;DHT22;22958;51.232;6.826;2022-09-09T17:05:52;16.20;99.90
37050;DHT22;22958;51.232;6.826;2022-09-09T17:08:17;16.20;99.90
37050;DHT22;22958;51.232;6.826;2022-09-09T17:10:43;16.20;99.90
37050;DHT22;22958;51.232;6.826;2022-09-09T17:13:08;16.30;99.90